METAR Data
IDs: Format: Raw Decoded Include TAF

Data at: 1427 UTC 10 Aug 2022

KAUN 101415Z AUTO 11005KT 10SM CLR 19/09 A3005 RMK A01
KAUN 101355Z AUTO 10005KT 10SM CLR 18/08 A3004 RMK A01
KAUN 101335Z AUTO 09005KT 10SM CLR 16/08 A3004 RMK A01
KAUN 101315Z AUTO 07003KT 10SM CLR 17/08 A3004 RMK A01
KAUN 101255Z AUTO 08003KT 10SM CLR 17/08 A3003 RMK A01
KAUN 101235Z AUTO 10005KT 10SM CLR 17/07 A3003 RMK A01
KAUN 101215Z AUTO 00000KT 10SM CLR 17/07 A3003 RMK A01
KAUN 101155Z AUTO 09005KT 10SM CLR 17/07 A3002 RMK A01
KAUN 101135Z AUTO 10007KT 10SM CLR 17/07 A3002 RMK A01
KAUN 101115Z AUTO 10007KT 10SM CLR 17/07 A3002 RMK A01
KAUN 101055Z AUTO 09006KT 10SM CLR 17/07 A3002 RMK A01
KAUN 101035Z AUTO 09006KT 10SM CLR 17/07 A3002 RMK A01
KAUN 101015Z AUTO 11006KT 10SM CLR 18/07 A3003 RMK A01
KAUN 100955Z AUTO 10005KT 10SM CLR 18/07 A3003 RMK A01
KAUN 100935Z AUTO 11008KT 10SM CLR 18/07 A3002 RMK A01
KAUN 100915Z AUTO 12008KT 10SM CLR 19/07 A3002 RMK A01
KAUN 100855Z AUTO 12007KT 10SM CLR 19/07 A3003 RMK A01
KAUN 100835Z AUTO 10006KT 10SM CLR 18/07 A3003 RMK A01
KAUN 100815Z AUTO 11005KT 10SM CLR 19/07 A3003 RMK A01
KAUN 100755Z AUTO 12006KT 10SM CLR 19/08 A3003 RMK A01
KAUN 100735Z AUTO 12005KT 10SM CLR 19/07 A3003 RMK A01
KAUN 100715Z AUTO 12006KT 10SM CLR 19/07 A3003 RMK A01
KAUN 100655Z AUTO 12006KT 10SM CLR 19/06 A3003 RMK A01
KAUN 100635Z AUTO 12006KT 10SM CLR 20/06 A3003 RMK A01
KAUN 100615Z AUTO 12007KT 10SM CLR 20/06 A3002 RMK A01
KAUN 100555Z AUTO 12004KT 10SM CLR 20/06 A3002 RMK A01
KAUN 100535Z AUTO 13007KT 10SM CLR 21/05 A3002 RMK A01
KAUN 100515Z AUTO 13006KT 10SM CLR 22/06 A3002 RMK A01
KAUN 100455Z AUTO 13006KT 10SM CLR 22/06 A3001 RMK A01
KAUN 100435Z AUTO VRB05KT 10SM CLR 22/06 A3000 RMK A01
KAUN 100415Z AUTO 13006KT 10SM CLR 22/07 A3000 RMK A01
KAUN 100355Z AUTO 19006KT 10SM CLR 23/09 A2999 RMK A01
KAUN 100335Z AUTO 18004KT 10SM CLR 24/09 A2999 RMK A01
KAUN 100315Z AUTO VRB04KT 10SM CLR 25/08 A2998 RMK A01
KAUN 100255Z AUTO 20007KT 10SM CLR 26/07 A2998 RMK A01
KAUN 100235Z AUTO 21009KT 10SM CLR 27/07 A2997 RMK A01
KAUN 100215Z AUTO 20007KT 10SM CLR 28/07 A2997 RMK A01
KAUN 100155Z AUTO 18007G12KT 10SM CLR 28/06 A2997 RMK A01
KAUN 100135Z AUTO 19007KT 10SM CLR 29/06 A2996 RMK A01
KAUN 100115Z AUTO 19007KT 10SM CLR 29/07 A2996 RMK A01
KAUN 100055Z AUTO 20008KT 10SM CLR 29/07 A2996 RMK A01
KAUN 100035Z AUTO 21006KT 10SM CLR 29/07 A2996 RMK A01
KAUN 100015Z AUTO 18007KT 10SM FEW100 30/07 A2996 RMK A01
KAUN 092355Z AUTO VRB03KT 10SM BKN100 29/07 A2996 RMK A01
KAUN 092335Z AUTO 25007KT 10SM SCT100 29/08 A2997 RMK A01
KAUN 092315Z AUTO 00000KT 10SM SCT100 28/09 A2997 RMK A01
KAUN 092255Z AUTO 23007KT 10SM FEW100 28/08 A2997 RMK A01
KAUN 092235Z AUTO VRB05G10KT 10SM CLR 29/08 A2997 RMK A01
KAUN 092215Z AUTO 18008KT 10SM FEW100 30/07 A2997 RMK A01
KAUN 092155Z AUTO 18005G11KT 10SM FEW100 29/08 A2998 RMK A01
KAUN 092135Z AUTO VRB05KT 10SM FEW100 29/08 A2998 RMK A01
KAUN 092115Z AUTO VRB03G10KT 10SM CLR 29/07 A2999 RMK A01
KAUN 092055Z AUTO 14004KT 10SM FEW100 28/09 A2998 RMK A01
KAUN 092035Z AUTO 19007KT 10SM SCT100 27/09 A2999 RMK A01
KAUN 092015Z AUTO 19005KT 10SM FEW100 28/09 A2999 RMK A01
KAUN 091955Z AUTO VRB05KT 10SM BKN100 27/11 A2999 RMK A01
KAUN 091935Z AUTO 20006KT 10SM FEW100 FEW110 27/11 A2999 RMK A01
KAUN 091915Z AUTO 18005KT 10SM FEW100 26/10 A2999 RMK A01
KAUN 091855Z AUTO 18005KT 10SM BKN095 26/10 A2999 RMK A01
KAUN 091835Z AUTO 19006KT 10SM BKN100 25/11 A3000 RMK A01
KAUN 091815Z AUTO 20005KT 9SM SCT100 25/13 A2999 RMK A01
KAUN 091755Z AUTO 20005KT 9SM SCT100 24/13 A2999 RMK A01
KAUN 091735Z AUTO 21006KT 10SM SCT100 24/12 A2999 RMK A01
KAUN 091715Z AUTO 21005KT 10SM SCT095 24/11 A2998 RMK A01
KAUN 091655Z AUTO 18006KT 10SM BKN095 25/09 A2998 RMK A01
KAUN 091635Z AUTO 15006KT 10SM FEW095 25/09 A2998 RMK A01
KAUN 091615Z AUTO 15007KT 10SM CLR 25/09 A2998 RMK A01
KAUN 091555Z AUTO 13007KT 10SM CLR 24/10 A2998 RMK A01
KAUN 091535Z AUTO 13006KT 10SM FEW095 22/11 A2998 RMK A01
KAUN 091515Z AUTO 14006KT 10SM FEW095 21/11 A2997 RMK A01
KAUN 091455Z AUTO 20004KT 10SM FEW110 22/11 A2997 RMK A01
KAUN 091435Z AUTO 00000KT 10SM BKN110 23/10 A2997 RMK A01
KAUN 091415Z AUTO 10005KT 10SM OVC100 23/10 A2996 RMK A01
KAUN 091355Z AUTO 11007KT 10SM OVC095 22/10 A2996 RMK A01
KAUN 091335Z AUTO 10008KT 10SM BKN095 21/10 A2996 RMK A01
KAUN 091315Z AUTO 10007KT 10SM CLR 21/10 A2996 RMK A01
KAUN 091255Z AUTO 10005KT 10SM CLR 21/10 A2995 RMK A01
KAUN 091235Z AUTO 13005KT 10SM CLR 21/10 A2995 RMK A01
KAUN 091215Z AUTO 13005KT 10SM FEW120 21/10 A2994 RMK A01
KAUN 091155Z AUTO 13007KT 10SM CLR 21/10 A2994 RMK A01
KAUN 091135Z AUTO 14005KT 10SM CLR 22/10 A2994 RMK A01
KAUN 091115Z AUTO 13006KT 10SM FEW120 22/10 A2994 RMK A01
KAUN 091055Z AUTO 13005KT 10SM FEW120 22/10 A2994 RMK A01
KAUN 091035Z AUTO 12005KT 10SM CLR 23/10 A2994 RMK A01
KAUN 091015Z AUTO 11007KT 10SM FEW120 22/10 A2994 RMK A01
KAUN 090955Z AUTO 14003KT 10SM FEW120 23/10 A2994 RMK A01
KAUN 090935Z AUTO 10005KT 10SM CLR 21/10 A2994 RMK A01
KAUN 090915Z AUTO 13003KT 10SM CLR 22/10 A2995 RMK A01
KAUN 090855Z AUTO 10003KT 10SM CLR 21/09 A2995 RMK A01
KAUN 090835Z AUTO 00000KT 10SM CLR 21/09 A2995 RMK A01
KAUN 090815Z AUTO 11004KT 10SM CLR 22/09 A2996 RMK A01
KAUN 090755Z AUTO 10007KT 10SM CLR 23/09 A2996 RMK A01
KAUN 090735Z AUTO 12006KT 10SM CLR 23/09 A2996 RMK A01
KAUN 090715Z AUTO 13005KT 10SM FEW110 23/09 A2996 RMK A01
KAUN 090655Z AUTO 14005KT 10SM FEW110 23/09 A2996 RMK A01
KAUN 090635Z AUTO 13005KT 10SM CLR 23/09 A2996 RMK A01
KAUN 090615Z AUTO 13005KT 10SM CLR 23/09 A2996 RMK A01
KAUN 090555Z AUTO 14005KT 10SM CLR 24/08 A2996 RMK A01
KAUN 090535Z AUTO 12006KT 10SM CLR 24/09 A2996 RMK A01
KAUN 090515Z AUTO 14004KT 10SM CLR 25/08 A2997 RMK A01
KAUN 090455Z AUTO 14004KT 10SM CLR 25/08 A2996 RMK A01
KAUN 090435Z AUTO 16004KT 10SM CLR 25/09 A2996 RMK A01
KAUN 090415Z AUTO 19004KT 10SM CLR 26/09 A2996 RMK A01
KAUN 090355Z AUTO VRB03KT 10SM CLR 26/08 A2995 RMK A01
KAUN 090335Z AUTO 18004KT 10SM CLR 27/08 A2995 RMK A01
KAUN 090315Z AUTO VRB04KT 10SM CLR 28/08 A2995 RMK A01
KAUN 090255Z AUTO VRB05KT 10SM CLR 28/08 A2994 RMK A01
KAUN 090235Z AUTO 19005KT 10SM CLR 29/09 A2994 RMK A01